Time;durP1;ratioP1;P1;durP2;ratioP2;P2;SDS_P1;SDS_P2;PMS_P1;PMS_P2;Temp;Humidity;BMP_temperature;BMP_pressure;BME280_temperature;BME280_humidity;BME280_pressure;Samples;Min_cycle;Max_cycle;Signal;HPM_P1;HPM_P2
2022/04/18 00:02:34;;;;;;;;;;;22.60;41.60;;;;;;6261115;28;21104;-46
2022/04/18 00:05:35;;;;;;;;;;;22.60;41.70;;;;;;6281357;28;19927;-52
2022/04/18 00:08:37;;;;;;;;;;;22.60;41.80;;;;;;6284894;27;20107;-49
2022/04/18 00:11:38;;;;;;;;;;;22.50;41.80;;;;;;6286601;27;19969;-53
2022/04/18 00:14:39;;;;;;;;;;;22.60;41.90;;;;;;6281032;28;19928;-46
2022/04/18 00:17:42;;;;;;;;;;;22.60;41.80;;;;;;6276502;28;19926;-46
2022/04/18 00:20:44;;;;;;;;;;;22.50;41.80;;;;;;6271613;28;20039;-49
2022/04/18 00:23:46;;;;;;;;;;;22.70;41.90;;;;;;6286141;27;19920;-46
2022/04/18 00:26:48;;;;;;;;;;;22.60;41.90;;;;;;6277006;28;19989;-47
2022/04/18 00:29:50;;;;;;;;;;;22.50;41.90;;;;;;6268087;28;19967;-49
2022/04/18 00:32:52;;;;;;;;;;;22.60;42.00;;;;;;6258277;28;19927;-45
2022/04/18 00:35:53;;;;;;;;;;;22.50;41.90;;;;;;6294832;27;19966;-47
2022/04/18 00:38:55;;;;;;;;;;;22.80;42.10;;;;;;6287505;27;19927;-46
2022/04/18 00:41:56;;;;;;;;;;;22.50;42.00;;;;;;6273618;28;19920;-49
2022/04/18 00:44:57;;;;;;;;;;;22.50;42.00;;;;;;6268866;28;20018;-47
2022/04/18 00:47:59;;;;;;;;;;;22.50;42.00;;;;;;6270615;28;20050;-46
2022/04/18 00:51:01;;;;;;;;;;;22.40;42.00;;;;;;6284726;27;20907;-49
2022/04/18 00:54:03;;;;;;;;;;;22.50;42.10;;;;;;6282290;27;20128;-47
2022/04/18 00:57:05;;;;;;;;;;;22.60;42.20;;;;;;6277756;28;20233;-51
2022/04/18 01:00:07;;;;;;;;;;;22.50;42.10;;;;;;6276723;27;19931;-48
2022/04/18 01:03:09;;;;;;;;;;;22.50;42.20;;;;;;6270575;28;20337;-48
2022/04/18 01:06:11;;;;;;;;;;;22.50;42.20;;;;;;6280621;27;19928;-50
2022/04/18 01:09:13;;;;;;;;;;;22.50;42.20;;;;;;6272426;28;20005;-49
2022/04/18 01:12:14;;;;;;;;;;;22.40;42.20;;;;;;6260934;28;20533;-49
2022/04/18 01:15:31;;;;;;;;;;;22.40;42.20;;;;;;6280928;27;19923;-48
2022/04/18 01:18:45;;;;;;;;;;;22.40;42.20;;;;;;6243351;28;20293;-48
2022/04/18 01:22:02;;;;;;;;;;;22.50;42.30;;;;;;6273855;27;20066;-50
2022/04/18 01:31:52;;;;;;;;;;;22.50;42.30;;;;;;6283951;28;19927;-49
2022/04/18 01:34:53;;;;;;;;;;;22.40;42.20;;;;;;6286549;27;19980;-46
2022/04/18 01:37:55;;;;;;;;;;;22.30;42.10;;;;;;6284384;28;19932;-48
2022/04/18 01:40:57;;;;;;;;;;;22.20;42.20;;;;;;6282108;27;20056;-45
2022/04/18 01:43:59;;;;;;;;;;;22.40;42.30;;;;;;6277913;27;19929;-46
2022/04/18 01:47:01;;;;;;;;;;;22.40;42.30;;;;;;6266329;28;20377;-45
2022/04/18 01:50:04;;;;;;;;;;;22.40;42.30;;;;;;6269720;28;20349;-46
2022/04/18 01:53:07;;;;;;;;;;;22.40;42.30;;;;;;6267971;28;20553;-47
2022/04/18 01:56:08;;;;;;;;;;;22.50;42.40;;;;;;6282393;27;20863;-46
2022/04/18 01:59:12;;;;;;;;;;;22.40;42.30;;;;;;6287559;28;19927;-49
2022/04/18 02:02:14;;;;;;;;;;;22.40;42.30;;;;;;6255399;28;21078;-48
2022/04/18 02:05:16;;;;;;;;;;;22.30;42.30;;;;;;6272808;28;19923;-46
2022/04/18 02:08:18;;;;;;;;;;;22.40;42.30;;;;;;6288932;27;20398;-48
2022/04/18 02:11:20;;;;;;;;;;;22.40;42.40;;;;;;6271499;28;20194;-46
2022/04/18 02:14:22;;;;;;;;;;;22.50;42.40;;;;;;6284848;28;19928;-47
2022/04/18 02:17:23;;;;;;;;;;;22.40;42.30;;;;;;6284512;27;20307;-49
2022/04/18 02:20:25;;;;;;;;;;;22.40;42.30;;;;;;6283990;27;19933;-46
2022/04/18 02:23:27;;;;;;;;;;;22.30;42.30;;;;;;6267439;28;20699;-48
2022/04/18 02:26:29;;;;;;;;;;;22.40;42.30;;;;;;6276519;27;20347;-47
2022/04/18 02:29:38;;;;;;;;;;;22.40;42.40;;;;;;6279066;28;19928;-49
2022/04/18 02:32:48;;;;;;;;;;;22.50;42.40;;;;;;6271437;27;19931;-48
2022/04/18 02:35:50;;;;;;;;;;;22.50;42.40;;;;;;6275287;27;20322;-46
2022/04/18 02:38:52;;;;;;;;;;;22.50;42.40;;;;;;6280657;27;19923;-48
2022/04/18 02:41:53;;;;;;;;;;;22.40;42.30;;;;;;6268083;28;20559;-48
2022/04/18 02:44:55;;;;;;;;;;;22.30;42.30;;;;;;6273930;27;19935;-47
2022/04/18 02:48:16;;;;;;;;;;;22.40;42.40;;;;;;6277500;28;20076;-49
2022/04/18 02:51:27;;;;;;;;;;;22.30;42.30;;;;;;6274949;28;20061;-46
2022/04/18 02:54:32;;;;;;;;;;;22.40;42.40;;;;;;6279538;27;20297;-47
2022/04/18 02:57:33;;;;;;;;;;;22.40;42.40;;;;;;6273365;28;19928;-47
2022/04/18 03:00:35;;;;;;;;;;;22.40;42.40;;;;;;6283436;27;19927;-47
2022/04/18 03:03:36;;;;;;;;;;;22.50;42.40;;;;;;6286929;28;20420;-48
2022/04/18 03:06:38;;;;;;;;;;;22.40;42.40;;;;;;6282505;27;20491;-46
2022/04/18 03:09:43;;;;;;;;;;;22.50;42.50;;;;;;6276108;28;20458;-48
2022/04/18 03:12:44;;;;;;;;;;;22.40;42.40;;;;;;6279231;27;19930;-46
2022/04/18 03:15:46;;;;;;;;;;;22.30;42.40;;;;;;6277614;28;20043;-49
2022/04/18 03:18:47;;;;;;;;;;;22.40;42.50;;;;;;6258575;28;20346;-47
2022/04/18 03:21:48;;;;;;;;;;;22.60;42.60;;;;;;6261422;27;20328;-48
2022/04/18 03:24:51;;;;;;;;;;;22.40;42.50;;;;;;6276617;27;20225;-48
2022/04/18 03:27:58;;;;;;;;;;;22.60;42.60;;;;;;6268533;28;20090;-49
2022/04/18 03:30:59;;;;;;;;;;;22.40;42.50;;;;;;6277279;28;19965;-46
2022/04/18 03:34:01;;;;;;;;;;;22.40;42.50;;;;;;6277222;27;20067;-47
2022/04/18 03:40:20;;;;;;;;;;;22.40;42.50;;;;;;6269801;28;19919;-46
2022/04/18 03:43:22;;;;;;;;;;;22.40;42.60;;;;;;6279927;27;20326;-48
2022/04/18 03:46:23;;;;;;;;;;;22.20;42.50;;;;;;6285825;27;20170;-49
2022/04/18 03:49:25;;;;;;;;;;;22.40;42.60;;;;;;6269177;28;20249;-47
2022/04/18 03:52:28;;;;;;;;;;;22.30;42.60;;;;;;6262536;28;20161;-47
2022/04/18 03:55:34;;;;;;;;;;;22.30;42.60;;;;;;6290578;27;19923;-50
2022/04/18 03:58:45;;;;;;;;;;;22.30;42.60;;;;;;6287751;27;19924;-50
2022/04/18 04:01:48;;;;;;;;;;;22.20;42.50;;;;;;6252571;28;20271;-45
2022/04/18 04:04:51;;;;;;;;;;;22.20;42.60;;;;;;6263970;27;20275;-46
2022/04/18 04:07:52;;;;;;;;;;;22.30;42.60;;;;;;6279932;27;19923;-50
2022/04/18 04:11:05;;;;;;;;;;;22.30;42.60;;;;;;6268393;28;19975;-46
2022/04/18 04:14:10;;;;;;;;;;;22.20;42.60;;;;;;6283440;27;19929;-45
2022/04/18 04:17:11;;;;;;;;;;;22.40;42.60;;;;;;6280118;28;20160;-46
2022/04/18 04:20:15;;;;;;;;;;;22.30;42.60;;;;;;6274682;28;19930;-48
2022/04/18 04:23:17;;;;;;;;;;;22.20;42.60;;;;;;6272750;28;20155;-48
2022/04/18 04:26:37;;;;;;;;;;;22.30;42.70;;;;;;6266874;28;19935;-45
2022/04/18 04:29:39;;;;;;;;;;;22.00;42.50;;;;;;6270988;27;20166;-47
2022/04/18 04:32:46;;;;;;;;;;;22.30;42.70;;;;;;6277743;27;19949;-47
2022/04/18 04:35:47;;;;;;;;;;;22.30;42.70;;;;;;6267752;28;20034;-46
2022/04/18 04:38:53;;;;;;;;;;;22.30;42.70;;;;;;6274910;28;20256;-48
2022/04/18 04:42:01;;;;;;;;;;;22.30;42.70;;;;;;6266012;28;20164;-46
2022/04/18 04:45:02;;;;;;;;;;;22.30;42.80;;;;;;6278361;28;19924;-48
2022/04/18 04:48:24;;;;;;;;;;;22.20;42.70;;;;;;6267011;28;20361;-47
2022/04/18 04:51:30;;;;;;;;;;;22.30;42.70;;;;;;6254725;27;19988;-46
2022/04/18 04:54:32;;;;;;;;;;;22.30;42.70;;;;;;6267102;28;20243;-51
2022/04/18 04:57:35;;;;;;;;;;;22.20;42.70;;;;;;6265107;27;20067;-52
2022/04/18 05:00:51;;;;;;;;;;;22.20;42.70;;;;;;6269170;28;20702;-46
2022/04/18 05:04:02;;;;;;;;;;;22.20;42.70;;;;;;6279017;27;20311;-48
2022/04/18 05:07:05;;;;;;;;;;;22.10;42.70;;;;;;6263132;28;20199;-49
2022/04/18 05:10:25;;;;;;;;;;;22.20;42.70;;;;;;6268048;28;19977;-49
2022/04/18 05:13:27;;;;;;;;;;;22.10;42.70;;;;;;6262580;28;19928;-49
2022/04/18 05:16:28;;;;;;;;;;;22.10;42.70;;;;;;6269328;28;19928;-47
2022/04/18 05:19:46;;;;;;;;;;;22.20;42.70;;;;;;6265887;27;20303;-51
2022/04/18 05:22:53;;;;;;;;;;;22.20;42.80;;;;;;6264152;27;20672;-46
2022/04/18 05:25:56;;;;;;;;;;;22.20;42.70;;;;;;6266280;27;20192;-49
2022/04/18 05:28:58;;;;;;;;;;;22.30;42.80;;;;;;6266122;27;20390;-46
2022/04/18 05:32:00;;;;;;;;;;;22.20;42.80;;;;;;6258275;28;20046;-46
2022/04/18 05:35:05;;;;;;;;;;;22.20;42.80;;;;;;6261006;28;19928;-45
2022/04/18 05:38:06;;;;;;;;;;;22.10;42.80;;;;;;6265807;27;20042;-46
2022/04/18 05:41:15;;;;;;;;;;;22.20;42.80;;;;;;6281424;27;20386;-48
2022/04/18 05:44:20;;;;;;;;;;;22.10;42.80;;;;;;6270027;27;19923;-46
2022/04/18 05:47:27;;;;;;;;;;;22.20;42.80;;;;;;6262151;28;20217;-50
2022/04/18 05:50:29;;;;;;;;;;;22.30;42.90;;;;;;6271423;27;19928;-46
2022/04/18 05:53:41;;;;;;;;;;;22.10;42.70;;;;;;6257783;27;19928;-47
2022/04/18 05:56:51;;;;;;;;;;;22.20;42.70;;;;;;6250492;27;20605;-46
2022/04/18 06:00:00;;;;;;;;;;;22.30;42.70;;;;;;6272026;27;20189;-45
2022/04/18 06:03:11;;;;;;;;;;;22.10;42.50;;;;;;6275702;28;20179;-47
2022/04/18 06:06:13;;;;;;;;;;;22.30;42.70;;;;;;6267418;28;20474;-49
2022/04/18 06:09:15;;;;;;;;;;;22.30;42.60;;;;;;6239998;27;20346;-48
2022/04/18 06:12:19;;;;;;;;;;;22.30;42.60;;;;;;6267167;28;20058;-46
2022/04/18 06:15:21;;;;;;;;;;;22.20;42.50;;;;;;6257970;27;19927;-46
2022/04/18 06:18:22;;;;;;;;;;;22.40;42.60;;;;;;6263285;28;20042;-47
2022/04/18 06:21:24;;;;;;;;;;;22.50;42.60;;;;;;6262778;27;20736;-46
2022/04/18 06:24:25;;;;;;;;;;;22.40;42.50;;;;;;6265222;28;19928;-46
2022/04/18 06:27:36;;;;;;;;;;;22.40;42.50;;;;;;6246167;28;20371;-48
2022/04/18 06:30:38;;;;;;;;;;;22.40;42.50;;;;;;6261525;28;20240;-47
2022/04/18 06:33:51;;;;;;;;;;;22.40;42.60;;;;;;6227754;28;20194;-47
2022/04/18 06:36:53;;;;;;;;;;;22.40;42.50;;;;;;6254368;28;20026;-45
2022/04/18 06:40:04;;;;;;;;;;;22.50;42.60;;;;;;6256599;28;20371;-46
2022/04/18 06:43:15;;;;;;;;;;;22.50;42.50;;;;;;6254515;28;20341;-46
2022/04/18 06:46:21;;;;;;;;;;;22.40;42.40;;;;;;6266379;28;20257;-47
2022/04/18 06:49:23;;;;;;;;;;;22.50;42.50;;;;;;6266233;27;20447;-50
2022/04/18 06:52:42;;;;;;;;;;;22.50;42.50;;;;;;6274477;28;20005;-46
2022/04/18 06:59:33;;;;;;;;;;;22.50;42.50;;;;;;6257956;27;20682;-48
2022/04/18 07:02:43;;;;;;;;;;;22.60;42.50;;;;;;6255553;28;20327;-49
2022/04/18 07:05:45;;;;;;;;;;;22.60;42.50;;;;;;6268249;27;19924;-48
2022/04/18 07:08:46;;;;;;;;;;;22.60;42.50;;;;;;6276040;27;20616;-49
2022/04/18 07:12:08;;;;;;;;;;;22.60;42.40;;;;;;6255921;28;20236;-47
2022/04/18 07:15:09;;;;;;;;;;;22.60;42.40;;;;;;6273799;28;20089;-49
2022/04/18 07:18:12;;;;;;;;;;;22.40;42.30;;;;;;6264454;28;20042;-49
2022/04/18 07:21:13;;;;;;;;;;;22.60;42.40;;;;;;6269451;28;20043;-48
2022/04/18 07:24:16;;;;;;;;;;;22.60;42.40;;;;;;6262691;28;20145;-45
2022/04/18 07:27:20;;;;;;;;;;;23.20;42.60;;;;;;6282425;27;20153;-46
2022/04/18 07:30:30;;;;;;;;;;;22.70;42.30;;;;;;6275601;28;20823;-45
2022/04/18 07:33:32;;;;;;;;;;;22.70;42.30;;;;;;6262536;28;20397;-51
2022/04/18 07:36:34;;;;;;;;;;;22.70;42.30;;;;;;6254397;28;20197;-47
2022/04/18 07:39:35;;;;;;;;;;;22.70;42.40;;;;;;6254381;28;19967;-49
2022/04/18 07:42:37;;;;;;;;;;;22.80;42.40;;;;;;6256008;28;19935;-48
2022/04/18 07:45:39;;;;;;;;;;;22.70;42.30;;;;;;6244902;28;20445;-49
2022/04/18 07:48:41;;;;;;;;;;;22.70;42.40;;;;;;6267944;27;19969;-48
2022/04/18 07:51:42;;;;;;;;;;;22.70;42.40;;;;;;6271399;27;20205;-50
2022/04/18 07:54:53;;;;;;;;;;;22.70;42.40;;;;;;6257905;28;20292;-45
2022/04/18 07:57:55;;;;;;;;;;;22.70;42.40;;;;;;6271159;27;20480;-48
2022/04/18 08:00:56;;;;;;;;;;;22.70;42.50;;;;;;6260941;28;20239;-47
2022/04/18 08:04:00;;;;;;;;;;;22.70;42.50;;;;;;6268279;27;19928;-47
2022/04/18 08:07:02;;;;;;;;;;;22.50;42.90;;;;;;6254741;28;20932;-48
2022/04/18 08:10:05;;;;;;;;;;;22.70;42.40;;;;;;6268155;28;20081;-46
2022/04/18 08:13:14;;;;;;;;;;;22.70;42.40;;;;;;6262600;28;20208;-46
2022/04/18 08:16:35;;;;;;;;;;;22.70;42.40;;;;;;6268057;27;19948;-47
2022/04/18 08:19:44;;;;;;;;;;;22.80;42.40;;;;;;6286463;27;20897;-47
2022/04/18 08:22:47;;;;;;;;;;;22.90;42.50;;;;;;6285598;27;19978;-46
2022/04/18 08:26:08;;;;;;;;;;;22.80;42.40;;;;;;6274589;27;20055;-47
2022/04/18 08:29:18;;;;;;;;;;;22.80;42.40;;;;;;6262098;27;21206;-48
2022/04/18 08:32:32;;;;;;;;;;;22.80;42.40;;;;;;6268930;27;20191;-50
2022/04/18 08:35:34;;;;;;;;;;;22.80;42.40;;;;;;6271853;28;21092;-50
2022/04/18 08:38:36;;;;;;;;;;;22.80;42.30;;;;;;6280260;27;19928;-47
2022/04/18 08:41:58;;;;;;;;;;;22.90;42.30;;;;;;6270839;28;20023;-47
2022/04/18 08:45:08;;;;;;;;;;;22.80;42.30;;;;;;6232786;28;20064;-49
2022/04/18 08:54:40;;;;;;;;;;;22.90;42.30;;;;;;6269374;27;20554;-46
2022/04/18 08:57:42;;;;;;;;;;;22.90;42.30;;;;;;6263805;27;20345;-47
2022/04/18 09:00:46;;;;;;;;;;;22.90;42.30;;;;;;6263315;27;19957;-49
2022/04/18 09:04:01;;;;;;;;;;;22.90;42.30;;;;;;6267168;28;20189;-48
2022/04/18 09:07:12;;;;;;;;;;;22.90;42.30;;;;;;6248167;28;19989;-48
2022/04/18 09:10:22;;;;;;;;;;;23.10;42.30;;;;;;6246834;28;20466;-46
2022/04/18 09:13:24;;;;;;;;;;;23.00;42.20;;;;;;6232688;27;22466;-45
2022/04/18 09:16:29;;;;;;;;;;;23.00;42.20;;;;;;6259537;27;20430;-49
2022/04/18 09:19:38;;;;;;;;;;;23.10;42.40;;;;;;6352785;27;20155;-47
2022/04/18 09:22:45;;;;;;;;;;;22.90;42.10;;;;;;6349437;27;20176;-50
2022/04/18 09:25:51;;;;;;;;;;;23.10;42.20;;;;;;6353906;27;20350;-49
2022/04/18 09:29:01;;;;;;;;;;;23.30;42.30;;;;;;6351718;27;20050;-48
2022/04/18 09:32:06;;;;;;;;;;;23.10;42.10;;;;;;6309910;27;20270;-48
2022/04/18 09:35:23;;;;;;;;;;;23.20;42.20;;;;;;6327452;27;20249;-50
2022/04/18 09:38:28;;;;;;;;;;;23.10;42.10;;;;;;6328801;27;20577;-47
2022/04/18 09:41:49;;;;;;;;;;;23.10;42.00;;;;;;6308159;27;20309;-48
2022/04/18 09:45:10;;;;;;;;;;;23.20;42.10;;;;;;6323955;27;20041;-49
2022/04/18 09:48:16;;;;;;;;;;;23.20;42.00;;;;;;6326340;27;20362;-47
2022/04/18 09:51:24;;;;;;;;;;;23.10;42.00;;;;;;6325905;27;19927;-46
2022/04/18 09:54:35;;;;;;;;;;;23.20;42.00;;;;;;6324216;27;19931;-48
2022/04/18 09:57:37;;;;;;;;;;;23.20;42.00;;;;;;6323055;27;20135;-49
2022/04/18 10:00:38;;;;;;;;;;;23.10;42.00;;;;;;6328461;27;20457;-47
2022/04/18 10:03:41;;;;;;;;;;;23.10;41.90;;;;;;6332513;27;19941;-47
2022/04/18 10:06:45;;;;;;;;;;;23.30;42.00;;;;;;6301352;27;20089;-49
2022/04/18 10:09:47;;;;;;;;;;;23.20;42.00;;;;;;6329840;27;20018;-46
2022/04/18 10:12:49;;;;;;;;;;;23.10;42.00;;;;;;6327237;27;20234;-47
2022/04/18 10:15:51;;;;;;;;;;;23.20;42.00;;;;;;6329848;27;20143;-47
2022/04/18 10:18:54;;;;;;;;;;;23.20;42.00;;;;;;6324230;27;20342;-49
2022/04/18 10:22:07;;;;;;;;;;;23.20;42.00;;;;;;6337416;27;20046;-48
2022/04/18 10:25:16;;;;;;;;;;;23.20;42.00;;;;;;6344173;27;20779;-48
2022/04/18 10:28:18;;;;;;;;;;;23.20;42.00;;;;;;6320546;27;19996;-47
2022/04/18 10:31:22;;;;;;;;;;;23.20;42.00;;;;;;6309089;27;20152;-47
2022/04/18 10:34:24;;;;;;;;;;;23.10;41.90;;;;;;6283975;27;20225;-46
2022/04/18 10:37:26;;;;;;;;;;;23.20;42.00;;;;;;6307858;27;20333;-47
2022/04/18 10:40:37;;;;;;;;;;;23.10;41.90;;;;;;6290387;27;21428;-47
2022/04/18 10:43:50;;;;;;;;;;;23.20;42.00;;;;;;6307506;27;20380;-49
2022/04/18 10:47:03;;;;;;;;;;;23.30;42.00;;;;;;6311749;27;19998;-50
2022/04/18 10:50:20;;;;;;;;;;;23.20;41.90;;;;;;6310515;27;20206;-46
2022/04/18 10:53:36;;;;;;;;;;;23.30;41.90;;;;;;6294373;27;19981;-46
2022/04/18 10:56:46;;;;;;;;;;;23.20;41.90;;;;;;6295772;27;19941;-49
2022/04/18 10:59:48;;;;;;;;;;;23.30;41.90;;;;;;6293314;27;20431;-49
2022/04/18 11:02:49;;;;;;;;;;;23.20;41.80;;;;;;6311980;27;20590;-48
2022/04/18 11:05:51;;;;;;;;;;;23.40;41.90;;;;;;6284099;27;20274;-51
2022/04/18 11:08:57;;;;;;;;;;;23.30;41.90;;;;;;6311862;27;20041;-46
2022/04/18 11:12:05;;;;;;;;;;;23.20;42.40;;;;;;6313517;27;19931;-47
2022/04/18 11:15:07;;;;;;;;;;;23.30;41.80;;;;;;6296712;27;20739;-49
2022/04/18 11:18:09;;;;;;;;;;;23.30;41.80;;;;;;6311790;27;20770;-50
2022/04/18 11:21:10;;;;;;;;;;;23.30;41.90;;;;;;6314048;27;20482;-47
2022/04/18 11:24:26;;;;;;;;;;;23.30;41.80;;;;;;6314311;27;19927;-49
2022/04/18 11:27:37;;;;;;;;;;;23.30;41.80;;;;;;6294492;27;19934;-48
2022/04/18 11:30:39;;;;;;;;;;;23.30;41.80;;;;;;6307892;27;20842;-51
2022/04/18 11:33:42;;;;;;;;;;;23.30;41.70;;;;;;6311570;27;20233;-49
2022/04/18 11:36:43;;;;;;;;;;;23.40;41.80;;;;;;6308408;27;20229;-47
2022/04/18 11:39:45;;;;;;;;;;;23.30;41.70;;;;;;6311456;27;19935;-47
2022/04/18 11:42:47;;;;;;;;;;;23.30;41.70;;;;;;6306367;27;19927;-47
2022/04/18 11:45:49;;;;;;;;;;;23.60;41.90;;;;;;6291512;27;20202;-46
2022/04/18 11:48:53;;;;;;;;;;;23.40;41.80;;;;;;6305706;27;20420;-47
2022/04/18 11:51:55;;;;;;;;;;;23.40;41.70;;;;;;6309696;27;20739;-47
2022/04/18 11:54:57;;;;;;;;;;;23.30;41.60;;;;;;6312656;27;19960;-48
2022/04/18 11:57:59;;;;;;;;;;;23.40;41.70;;;;;;6312950;27;20241;-48
2022/04/18 12:07:32;;;;;;;;;;;23.40;41.60;;;;;;6309773;27;20556;-48
2022/04/18 12:10:35;;;;;;;;;;;23.50;41.60;;;;;;6303764;27;20339;-48
2022/04/18 12:13:40;;;;;;;;;;;23.40;41.60;;;;;;6288811;27;20370;-47
2022/04/18 12:16:42;;;;;;;;;;;23.50;41.70;;;;;;6293540;27;20215;-49
2022/04/18 12:19:43;;;;;;;;;;;23.40;41.50;;;;;;6306519;27;20063;-47
2022/04/18 12:22:48;;;;;;;;;;;23.50;41.60;;;;;;6312240;27;20565;-48
2022/04/18 12:25:50;;;;;;;;;;;23.40;41.50;;;;;;6286938;27;20286;-49
2022/04/18 12:28:57;;;;;;;;;;;23.50;41.50;;;;;;6307556;27;19931;-47
2022/04/18 12:31:59;;;;;;;;;;;23.40;41.50;;;;;;6308246;27;20113;-57
2022/04/18 12:35:00;;;;;;;;;;;23.60;41.50;;;;;;6295639;27;20290;-49
2022/04/18 12:38:02;;;;;;;;;;;23.50;41.50;;;;;;6303433;27;20762;-47
2022/04/18 12:41:04;;;;;;;;;;;23.60;41.50;;;;;;6281094;27;20121;-47
2022/04/18 12:44:10;;;;;;;;;;;23.60;41.50;;;;;;6302555;27;19937;-47
2022/04/18 12:47:16;;;;;;;;;;;23.60;41.40;;;;;;6307941;27;20289;-51
2022/04/18 12:50:18;;;;;;;;;;;23.60;41.40;;;;;;6309159;27;20476;-53
2022/04/18 12:53:20;;;;;;;;;;;23.60;41.40;;;;;;6306303;27;20514;-48
2022/04/18 12:56:23;;;;;;;;;;;23.60;41.40;;;;;;6302381;27;19927;-50
2022/04/18 12:59:26;;;;;;;;;;;23.80;41.50;;;;;;6284953;27;19927;-51
2022/04/18 13:02:27;;;;;;;;;;;23.60;41.40;;;;;;6287135;27;19931;-47
2022/04/18 13:05:30;;;;;;;;;;;23.50;41.30;;;;;;6306278;27;19961;-47
2022/04/18 13:08:35;;;;;;;;;;;23.70;41.40;;;;;;6288826;27;20197;-48
2022/04/18 13:11:37;;;;;;;;;;;23.70;41.40;;;;;;6308807;27;20026;-52
2022/04/18 13:14:54;;;;;;;;;;;23.70;41.30;;;;;;6305206;27;20019;-50
2022/04/18 13:17:57;;;;;;;;;;;23.50;41.30;;;;;;6292867;27;19931;-49
2022/04/18 13:20:59;;;;;;;;;;;23.70;41.30;;;;;;6301818;27;20336;-49
2022/04/18 13:24:00;;;;;;;;;;;23.70;41.30;;;;;;6283621;27;19932;-50
2022/04/18 13:27:02;;;;;;;;;;;23.60;41.30;;;;;;6304109;27;20516;-46
2022/04/18 13:30:04;;;;;;;;;;;23.70;41.20;;;;;;6305347;27;20214;-48
2022/04/18 13:33:06;;;;;;;;;;;23.60;41.20;;;;;;6309418;27;20311;-46
2022/04/18 13:39:22;;;;;;;;;;;23.70;41.20;;;;;;6310393;27;20443;-47
2022/04/18 13:42:23;;;;;;;;;;;23.80;41.20;;;;;;6305001;27;20303;-51
2022/04/18 13:45:25;;;;;;;;;;;23.80;41.20;;;;;;6310037;27;20342;-46
2022/04/18 13:48:27;;;;;;;;;;;23.80;41.10;;;;;;6309222;27;20340;-48
2022/04/18 13:51:30;;;;;;;;;;;23.70;41.00;;;;;;6307191;27;20452;-50
2022/04/18 13:54:32;;;;;;;;;;;23.80;41.10;;;;;;6308093;27;20157;-47
2022/04/18 13:57:33;;;;;;;;;;;23.80;41.00;;;;;;6310599;27;20795;-46
2022/04/18 14:00:34;;;;;;;;;;;23.90;41.00;;;;;;6308636;27;19991;-47
2022/04/18 14:03:37;;;;;;;;;;;23.70;41.00;;;;;;6305302;27;20126;-47
2022/04/18 14:06:39;;;;;;;;;;;23.90;41.10;;;;;;6307107;27;20297;-47
2022/04/18 14:09:42;;;;;;;;;;;23.80;41.00;;;;;;6307876;27;19931;-49
2022/04/18 14:13:03;;;;;;;;;;;23.90;41.00;;;;;;6291213;27;19931;-49
2022/04/18 14:22:38;;;;;;;;;;;23.80;40.90;;;;;;6310861;27;20194;-49
2022/04/18 14:25:40;;;;;;;;;;;23.90;41.00;;;;;;6305559;27;20027;-49
2022/04/18 14:28:42;;;;;;;;;;;23.70;40.90;;;;;;6289311;27;19965;-47
2022/04/18 14:31:43;;;;;;;;;;;23.90;41.00;;;;;;6308861;27;19927;-48
2022/04/18 14:34:45;;;;;;;;;;;23.80;40.90;;;;;;6309968;27;20233;-48
2022/04/18 14:37:46;;;;;;;;;;;23.80;40.90;;;;;;6305748;27;19974;-48
2022/04/18 14:40:48;;;;;;;;;;;23.90;40.90;;;;;;6307805;27;20385;-48
2022/04/18 14:43:49;;;;;;;;;;;24.00;41.00;;;;;;6305716;27;19942;-48
2022/04/18 14:46:50;;;;;;;;;;;23.80;40.90;;;;;;6308817;27;20446;-49
2022/04/18 14:49:52;;;;;;;;;;;23.80;40.90;;;;;;6308031;27;20120;-48
2022/04/18 14:52:53;;;;;;;;;;;23.90;40.90;;;;;;6310997;27;20234;-49
2022/04/18 14:55:55;;;;;;;;;;;23.90;40.90;;;;;;6309814;27;19927;-49
2022/04/18 14:58:56;;;;;;;;;;;23.80;40.90;;;;;;6292944;27;20011;-47
2022/04/18 15:01:58;;;;;;;;;;;23.70;40.80;;;;;;6280303;27;20158;-49
2022/04/18 15:05:00;;;;;;;;;;;23.80;40.90;;;;;;6300650;27;20928;-48
2022/04/18 15:08:02;;;;;;;;;;;23.80;40.90;;;;;;6309821;27;20424;-48
2022/04/18 15:11:04;;;;;;;;;;;23.60;40.80;;;;;;6309458;27;19970;-47
2022/04/18 15:14:05;;;;;;;;;;;23.80;40.80;;;;;;6310760;27;20554;-50
2022/04/18 15:17:07;;;;;;;;;;;23.80;40.80;;;;;;6310729;27;19931;-48
2022/04/18 15:20:09;;;;;;;;;;;23.90;40.90;;;;;;6310569;27;19947;-50
2022/04/18 15:23:11;;;;;;;;;;;23.90;40.80;;;;;;6310840;27;20216;-49
2022/04/18 15:26:12;;;;;;;;;;;23.90;40.80;;;;;;6313205;27;20368;-46
2022/04/18 15:29:14;;;;;;;;;;;23.90;40.80;;;;;;6308647;27;20386;-47
2022/04/18 15:32:17;;;;;;;;;;;23.90;40.80;;;;;;6311199;27;20414;-49
2022/04/18 15:35:19;;;;;;;;;;;23.70;40.70;;;;;;6314851;27;21401;-47
2022/04/18 15:38:21;;;;;;;;;;;24.10;40.90;;;;;;6309437;27;20148;-47
2022/04/18 15:41:22;;;;;;;;;;;23.90;40.80;;;;;;6310840;27;20163;-47
2022/04/18 15:44:24;;;;;;;;;;;23.90;40.80;;;;;;6306886;27;20261;-48
2022/04/18 15:47:25;;;;;;;;;;;24.00;40.80;;;;;;6285925;27;20222;-48
2022/04/18 15:50:31;;;;;;;;;;;23.80;40.70;;;;;;6305049;27;20048;-47
2022/04/18 15:53:32;;;;;;;;;;;23.80;40.70;;;;;;6302556;27;20585;-47
2022/04/18 15:56:33;;;;;;;;;;;23.90;40.80;;;;;;6309014;27;20725;-48
2022/04/18 15:59:41;;;;;;;;;;;24.00;40.80;;;;;;6306171;27;20427;-49
2022/04/18 16:02:42;;;;;;;;;;;23.80;40.70;;;;;;6305544;27;20459;-50
2022/04/18 16:05:44;;;;;;;;;;;23.80;40.70;;;;;;6306964;27;19931;-49
2022/04/18 16:08:45;;;;;;;;;;;23.80;40.70;;;;;;6302158;27;19978;-47
2022/04/18 16:11:48;;;;;;;;;;;23.80;40.70;;;;;;6304947;27;20348;-48
2022/04/18 16:14:49;;;;;;;;;;;23.90;40.70;;;;;;6306621;27;19927;-48
2022/04/18 16:17:50;;;;;;;;;;;23.80;40.70;;;;;;6308851;27;20265;-50
2022/04/18 16:20:52;;;;;;;;;;;23.80;40.60;;;;;;6276372;27;20387;-55
2022/04/18 16:23:54;;;;;;;;;;;23.90;40.70;;;;;;6302224;27;19931;-47
2022/04/18 16:26:55;;;;;;;;;;;23.90;40.60;;;;;;6307017;27;20828;-48
2022/04/18 16:33:12;;;;;;;;;;;23.90;40.60;;;;;;6304643;27;20113;-50
2022/04/18 16:36:15;;;;;;;;;;;23.80;40.60;;;;;;6301962;27;20028;-49
2022/04/18 16:39:16;;;;;;;;;;;23.80;40.50;;;;;;6306700;27;19989;-50
2022/04/18 16:48:48;;;;;;;;;;;23.90;40.60;;;;;;6293045;27;20259;-47
2022/04/18 16:51:50;;;;;;;;;;;23.80;40.40;;;;;;6308309;27;20569;-50
2022/04/18 16:54:51;;;;;;;;;;;23.80;40.40;;;;;;6304831;27;20476;-47
2022/04/18 16:57:53;;;;;;;;;;;23.80;40.40;;;;;;6306577;27;19931;-50
2022/04/18 17:00:54;;;;;;;;;;;23.80;41.10;;;;;;6301655;27;19974;-48
2022/04/18 17:03:57;;;;;;;;;;;23.80;40.50;;;;;;6277284;27;19933;-47
2022/04/18 17:06:59;;;;;;;;;;;23.80;40.40;;;;;;6303711;27;20313;-47
2022/04/18 17:10:00;;;;;;;;;;;23.80;40.40;;;;;;6311692;27;20042;-47
2022/04/18 17:13:02;;;;;;;;;;;23.80;40.40;;;;;;6289809;27;20191;-46
2022/04/18 17:16:04;;;;;;;;;;;23.80;40.40;;;;;;6309338;27;20881;-48
2022/04/18 17:19:06;;;;;;;;;;;23.70;40.30;;;;;;6308110;27;19927;-51
2022/04/18 17:22:08;;;;;;;;;;;23.80;40.40;;;;;;6307229;27;19931;-50
2022/04/18 17:25:09;;;;;;;;;;;23.80;40.30;;;;;;6296450;27;20087;-48
2022/04/18 17:28:11;;;;;;;;;;;23.70;40.30;;;;;;6276416;27;21054;-47
2022/04/18 17:31:12;;;;;;;;;;;23.80;40.30;;;;;;6302073;27;20614;-48
2022/04/18 17:34:15;;;;;;;;;;;23.70;40.20;;;;;;6305602;27;20478;-51
2022/04/18 17:37:17;;;;;;;;;;;23.90;40.30;;;;;;6309834;27;20095;-48
2022/04/18 17:40:18;;;;;;;;;;;23.90;40.30;;;;;;6309600;27;20466;-47
2022/04/18 17:43:21;;;;;;;;;;;23.90;40.20;;;;;;6305312;27;19926;-47
2022/04/18 17:46:22;;;;;;;;;;;23.70;40.10;;;;;;6315401;27;20276;-49
2022/04/18 17:49:24;;;;;;;;;;;23.70;40.10;;;;;;6298844;27;20124;-48
2022/04/18 17:52:26;;;;;;;;;;;23.90;40.20;;;;;;6312761;27;20569;-48
2022/04/18 17:58:42;;;;;;;;;;;23.70;40.10;;;;;;6316729;27;19942;-47
2022/04/18 18:01:43;;;;;;;;;;;23.80;40.10;;;;;;6309690;27;19931;-51
2022/04/18 18:04:44;;;;;;;;;;;23.90;40.10;;;;;;6312754;27;20243;-49
2022/04/18 18:07:47;;;;;;;;;;;23.70;40.00;;;;;;6312542;27;20092;-47
2022/04/18 18:10:48;;;;;;;;;;;23.80;40.00;;;;;;6308570;27;20053;-50
2022/04/18 18:13:50;;;;;;;;;;;23.90;40.00;;;;;;6311347;27;20382;-48
2022/04/18 18:16:52;;;;;;;;;;;23.80;39.90;;;;;;6310994;27;20435;-48
2022/04/18 18:19:54;;;;;;;;;;;23.90;40.00;;;;;;6312710;27;20402;-48
2022/04/18 18:22:57;;;;;;;;;;;24.00;39.90;;;;;;6311701;27;20260;-49
2022/04/18 18:25:58;;;;;;;;;;;24.00;39.90;;;;;;6312523;27;19997;-47
2022/04/18 18:29:02;;;;;;;;;;;23.90;39.80;;;;;;6312120;27;20796;-49
2022/04/18 18:32:04;;;;;;;;;;;23.90;39.80;;;;;;6291389;27;20207;-50
2022/04/18 18:35:06;;;;;;;;;;;23.90;39.80;;;;;;6312828;27;20432;-50
2022/04/18 18:38:08;;;;;;;;;;;23.90;39.80;;;;;;6284037;27;19938;-48
2022/04/18 18:41:09;;;;;;;;;;;23.90;39.80;;;;;;6303986;27;20027;-48